sensor_id;sensor_type;location;lat;lon;timestamp;P1;durP1;ratioP1;P2;durP2;ratioP2
56760;SDS011;42633;44.494;11.356;2022-09-29T00:00:13;12.18;;;6.63;;
56760;SDS011;42633;44.494;11.356;2022-09-29T00:03:18;13.93;;;7.22;;
56760;SDS011;42633;44.494;11.356;2022-09-29T00:06:23;12.90;;;7.63;;
56760;SDS011;42633;44.494;11.356;2022-09-29T00:09:28;15.38;;;8.00;;
56760;SDS011;42633;44.494;11.356;2022-09-29T00:12:32;22.08;;;8.20;;
56760;SDS011;42633;44.494;11.356;2022-09-29T00:15:36;18.05;;;8.07;;
56760;SDS011;42633;44.494;11.356;2022-09-29T00:18:40;16.83;;;7.88;;
56760;SDS011;42633;44.494;11.356;2022-09-29T00:21:44;18.08;;;7.60;;
56760;SDS011;42633;44.494;11.356;2022-09-29T00:24:48;15.02;;;8.30;;
56760;SDS011;42633;44.494;11.356;2022-09-29T00:27:53;20.42;;;8.60;;
56760;SDS011;42633;44.494;11.356;2022-09-29T00:30:57;40.10;;;10.27;;
56760;SDS011;42633;44.494;11.356;2022-09-29T00:34:03;28.27;;;8.57;;
56760;SDS011;42633;44.494;11.356;2022-09-29T00:37:07;18.00;;;7.95;;
56760;SDS011;42633;44.494;11.356;2022-09-29T00:40:11;17.60;;;8.02;;
56760;SDS011;42633;44.494;11.356;2022-09-29T00:43:24;16.75;;;7.65;;
56760;SDS011;42633;44.494;11.356;2022-09-29T00:46:54;16.23;;;7.82;;
56760;SDS011;42633;44.494;11.356;2022-09-29T00:50:11;16.10;;;7.95;;
56760;SDS011;42633;44.494;11.356;2022-09-29T00:53:29;17.80;;;8.23;;
56760;SDS011;42633;44.494;11.356;2022-09-29T00:56:35;14.88;;;8.60;;
56760;SDS011;42633;44.494;11.356;2022-09-29T00:59:46;18.15;;;8.30;;
56760;SDS011;42633;44.494;11.356;2022-09-29T01:03:13;16.17;;;8.38;;
56760;SDS011;42633;44.494;11.356;2022-09-29T01:06:23;16.95;;;8.23;;
56760;SDS011;42633;44.494;11.356;2022-09-29T01:09:36;16.77;;;9.32;;
56760;SDS011;42633;44.494;11.356;2022-09-29T01:12:42;28.90;;;16.52;;
56760;SDS011;42633;44.494;11.356;2022-09-29T01:15:48;26.30;;;20.48;;
56760;SDS011;42633;44.494;11.356;2022-09-29T01:18:52;39.72;;;30.05;;
56760;SDS011;42633;44.494;11.356;2022-09-29T01:28:34;30.25;;;22.02;;
56760;SDS011;42633;44.494;11.356;2022-09-29T01:43:08;24.00;;;14.52;;
56760;SDS011;42633;44.494;11.356;2022-09-29T01:46:22;24.38;;;14.27;;
56760;SDS011;42633;44.494;11.356;2022-09-29T01:49:27;28.95;;;13.63;;
56760;SDS011;42633;44.494;11.356;2022-09-29T01:58:53;26.60;;;14.10;;
56760;SDS011;42633;44.494;11.356;2022-09-29T02:02:11;25.77;;;15.82;;
56760;SDS011;42633;44.494;11.356;2022-09-29T02:08:37;30.88;;;17.20;;
56760;SDS011;42633;44.494;11.356;2022-09-29T02:11:59;28.98;;;16.20;;
56760;SDS011;42633;44.494;11.356;2022-09-29T02:15:05;29.65;;;18.13;;
56760;SDS011;42633;44.494;11.356;2022-09-29T02:18:15;33.85;;;19.77;;
56760;SDS011;42633;44.494;11.356;2022-09-29T02:21:25;28.10;;;17.92;;
56760;SDS011;42633;44.494;11.356;2022-09-29T02:24:30;27.10;;;17.58;;
56760;SDS011;42633;44.494;11.356;2022-09-29T02:27:56;31.15;;;18.05;;
56760;SDS011;42633;44.494;11.356;2022-09-29T02:31:00;28.17;;;18.83;;
56760;SDS011;42633;44.494;11.356;2022-09-29T02:34:08;23.85;;;17.52;;
56760;SDS011;42633;44.494;11.356;2022-09-29T02:47:58;33.75;;;21.48;;
56760;SDS011;42633;44.494;11.356;2022-09-29T02:51:40;41.13;;;22.92;;
56760;SDS011;42633;44.494;11.356;2022-09-29T02:58:19;32.75;;;21.80;;
56760;SDS011;42633;44.494;11.356;2022-09-29T03:01:53;37.90;;;23.88;;
56760;SDS011;42633;44.494;11.356;2022-09-29T03:05:00;41.28;;;24.60;;
56760;SDS011;42633;44.494;11.356;2022-09-29T03:08:06;39.33;;;23.80;;
56760;SDS011;42633;44.494;11.356;2022-09-29T03:11:09;36.40;;;23.42;;
56760;SDS011;42633;44.494;11.356;2022-09-29T03:14:13;41.70;;;24.95;;
56760;SDS011;42633;44.494;11.356;2022-09-29T03:17:18;37.80;;;23.33;;
56760;SDS011;42633;44.494;11.356;2022-09-29T03:20:22;39.75;;;22.58;;
56760;SDS011;42633;44.494;11.356;2022-09-29T03:23:26;32.47;;;21.02;;
56760;SDS011;42633;44.494;11.356;2022-09-29T03:26:30;33.72;;;18.83;;
56760;SDS011;42633;44.494;11.356;2022-09-29T03:29:34;30.58;;;15.32;;
56760;SDS011;42633;44.494;11.356;2022-09-29T03:32:39;21.70;;;10.50;;
56760;SDS011;42633;44.494;11.356;2022-09-29T03:35:43;18.15;;;9.30;;
56760;SDS011;42633;44.494;11.356;2022-09-29T03:38:47;15.57;;;8.07;;
56760;SDS011;42633;44.494;11.356;2022-09-29T03:41:51;23.17;;;9.90;;
56760;SDS011;42633;44.494;11.356;2022-09-29T03:44:55;16.42;;;6.57;;
56760;SDS011;42633;44.494;11.356;2022-09-29T03:47:59;17.85;;;7.65;;
56760;SDS011;42633;44.494;11.356;2022-09-29T03:51:04;12.93;;;6.68;;
56760;SDS011;42633;44.494;11.356;2022-09-29T03:54:09;14.75;;;6.97;;
56760;SDS011;42633;44.494;11.356;2022-09-29T03:57:13;15.38;;;6.18;;
56760;SDS011;42633;44.494;11.356;2022-09-29T04:00:17;11.85;;;5.80;;
56760;SDS011;42633;44.494;11.356;2022-09-29T04:03:21;16.42;;;6.75;;
56760;SDS011;42633;44.494;11.356;2022-09-29T04:06:25;15.05;;;6.63;;
56760;SDS011;42633;44.494;11.356;2022-09-29T04:09:29;16.65;;;7.53;;
56760;SDS011;42633;44.494;11.356;2022-09-29T04:12:33;23.92;;;8.68;;
56760;SDS011;42633;44.494;11.356;2022-09-29T04:15:38;18.33;;;8.88;;
56760;SDS011;42633;44.494;11.356;2022-09-29T04:18:42;23.48;;;11.23;;
56760;SDS011;42633;44.494;11.356;2022-09-29T04:21:46;28.65;;;15.38;;
56760;SDS011;42633;44.494;11.356;2022-09-29T04:24:50;25.80;;;15.88;;
56760;SDS011;42633;44.494;11.356;2022-09-29T04:27:54;29.45;;;15.60;;
56760;SDS011;42633;44.494;11.356;2022-09-29T04:30:58;26.63;;;15.02;;
56760;SDS011;42633;44.494;11.356;2022-09-29T04:34:02;27.42;;;16.42;;
56760;SDS011;42633;44.494;11.356;2022-09-29T04:37:07;27.70;;;14.88;;
56760;SDS011;42633;44.494;11.356;2022-09-29T04:43:19;29.02;;;16.08;;
56760;SDS011;42633;44.494;11.356;2022-09-29T04:46:23;30.27;;;16.52;;
56760;SDS011;42633;44.494;11.356;2022-09-29T04:49:27;26.98;;;15.85;;
56760;SDS011;42633;44.494;11.356;2022-09-29T04:52:31;25.33;;;16.10;;
56760;SDS011;42633;44.494;11.356;2022-09-29T04:55:36;37.42;;;19.23;;
56760;SDS011;42633;44.494;11.356;2022-09-29T04:58:40;28.70;;;17.05;;
56760;SDS011;42633;44.494;11.356;2022-09-29T05:01:44;32.30;;;19.58;;
56760;SDS011;42633;44.494;11.356;2022-09-29T05:04:51;32.40;;;19.38;;
56760;SDS011;42633;44.494;11.356;2022-09-29T05:07:54;30.85;;;17.50;;
56760;SDS011;42633;44.494;11.356;2022-09-29T05:11:01;36.53;;;19.45;;
56760;SDS011;42633;44.494;11.356;2022-09-29T05:14:09;29.65;;;18.10;;
56760;SDS011;42633;44.494;11.356;2022-09-29T05:17:13;31.80;;;18.08;;
56760;SDS011;42633;44.494;11.356;2022-09-29T05:20:17;31.05;;;18.88;;
56760;SDS011;42633;44.494;11.356;2022-09-29T05:23:21;34.22;;;19.40;;
56760;SDS011;42633;44.494;11.356;2022-09-29T05:26:25;36.75;;;18.35;;
56760;SDS011;42633;44.494;11.356;2022-09-29T05:29:29;35.97;;;20.25;;
56760;SDS011;42633;44.494;11.356;2022-09-29T05:32:34;26.15;;;17.85;;
56760;SDS011;42633;44.494;11.356;2022-09-29T05:35:38;46.10;;;21.98;;
56760;SDS011;42633;44.494;11.356;2022-09-29T05:38:42;32.40;;;19.00;;
56760;SDS011;42633;44.494;11.356;2022-09-29T05:41:46;33.22;;;19.02;;
56760;SDS011;42633;44.494;11.356;2022-09-29T05:44:51;34.40;;;17.67;;
56760;SDS011;42633;44.494;11.356;2022-09-29T05:47:55;37.30;;;20.27;;
56760;SDS011;42633;44.494;11.356;2022-09-29T05:51:05;37.17;;;21.92;;
56760;SDS011;42633;44.494;11.356;2022-09-29T05:54:10;34.78;;;19.25;;
56760;SDS011;42633;44.494;11.356;2022-09-29T05:57:14;32.22;;;19.50;;
56760;SDS011;42633;44.494;11.356;2022-09-29T06:00:18;33.08;;;20.70;;
56760;SDS011;42633;44.494;11.356;2022-09-29T06:03:23;32.35;;;19.20;;
56760;SDS011;42633;44.494;11.356;2022-09-29T06:06:27;32.00;;;20.50;;
56760;SDS011;42633;44.494;11.356;2022-09-29T06:09:32;37.35;;;20.95;;
56760;SDS011;42633;44.494;11.356;2022-09-29T06:12:38;32.58;;;21.95;;
56760;SDS011;42633;44.494;11.356;2022-09-29T06:15:42;32.00;;;22.05;;
56760;SDS011;42633;44.494;11.356;2022-09-29T06:18:47;32.25;;;21.20;;
56760;SDS011;42633;44.494;11.356;2022-09-29T06:21:51;36.75;;;21.80;;
56760;SDS011;42633;44.494;11.356;2022-09-29T06:24:55;35.83;;;22.58;;
56760;SDS011;42633;44.494;11.356;2022-09-29T06:28:00;41.35;;;24.63;;
56760;SDS011;42633;44.494;11.356;2022-09-29T06:31:05;32.40;;;21.35;;
56760;SDS011;42633;44.494;11.356;2022-09-29T06:34:12;28.45;;;20.52;;
56760;SDS011;42633;44.494;11.356;2022-09-29T06:37:16;31.40;;;20.10;;
56760;SDS011;42633;44.494;11.356;2022-09-29T06:40:38;34.42;;;20.70;;
56760;SDS011;42633;44.494;11.356;2022-09-29T06:43:42;29.58;;;19.45;;
56760;SDS011;42633;44.494;11.356;2022-09-29T06:46:46;36.33;;;19.48;;
56760;SDS011;42633;44.494;11.356;2022-09-29T06:49:52;31.17;;;18.63;;
56760;SDS011;42633;44.494;11.356;2022-09-29T06:53:04;23.55;;;17.65;;
56760;SDS011;42633;44.494;11.356;2022-09-29T06:56:11;34.13;;;19.25;;
56760;SDS011;42633;44.494;11.356;2022-09-29T06:59:15;26.52;;;16.63;;
56760;SDS011;42633;44.494;11.356;2022-09-29T07:02:21;21.45;;;16.48;;
56760;SDS011;42633;44.494;11.356;2022-09-29T07:05:26;23.85;;;15.98;;
56760;SDS011;42633;44.494;11.356;2022-09-29T07:08:32;28.85;;;17.42;;
56760;SDS011;42633;44.494;11.356;2022-09-29T07:11:44;24.40;;;15.43;;
56760;SDS011;42633;44.494;11.356;2022-09-29T07:14:53;32.20;;;14.45;;
56760;SDS011;42633;44.494;11.356;2022-09-29T07:17:58;26.70;;;14.80;;
56760;SDS011;42633;44.494;11.356;2022-09-29T07:21:04;25.02;;;14.07;;
56760;SDS011;42633;44.494;11.356;2022-09-29T07:24:09;25.85;;;14.07;;
56760;SDS011;42633;44.494;11.356;2022-09-29T07:27:13;26.08;;;14.10;;
56760;SDS011;42633;44.494;11.356;2022-09-29T07:30:17;22.77;;;13.40;;
56760;SDS011;42633;44.494;11.356;2022-09-29T07:33:21;21.23;;;11.10;;
56760;SDS011;42633;44.494;11.356;2022-09-29T07:36:26;23.98;;;12.63;;
56760;SDS011;42633;44.494;11.356;2022-09-29T07:39:30;19.13;;;12.68;;
56760;SDS011;42633;44.494;11.356;2022-09-29T07:42:34;21.30;;;12.32;;
56760;SDS011;42633;44.494;11.356;2022-09-29T07:45:39;25.50;;;12.18;;
56760;SDS011;42633;44.494;11.356;2022-09-29T07:48:48;25.55;;;13.25;;
56760;SDS011;42633;44.494;11.356;2022-09-29T07:51:52;19.95;;;11.65;;
56760;SDS011;42633;44.494;11.356;2022-09-29T07:54:56;17.52;;;10.88;;
56760;SDS011;42633;44.494;11.356;2022-09-29T07:58:00;18.70;;;11.57;;
56760;SDS011;42633;44.494;11.356;2022-09-29T08:01:06;20.58;;;9.98;;
56760;SDS011;42633;44.494;11.356;2022-09-29T08:04:14;38.97;;;17.15;;
56760;SDS011;42633;44.494;11.356;2022-09-29T08:07:21;21.45;;;11.40;;
56760;SDS011;42633;44.494;11.356;2022-09-29T08:10:28;19.67;;;10.48;;
56760;SDS011;42633;44.494;11.356;2022-09-29T08:13:33;20.77;;;11.32;;
56760;SDS011;42633;44.494;11.356;2022-09-29T08:16:38;23.13;;;11.57;;
56760;SDS011;42633;44.494;11.356;2022-09-29T08:19:43;24.33;;;11.80;;
56760;SDS011;42633;44.494;11.356;2022-09-29T08:22:47;20.60;;;9.90;;
56760;SDS011;42633;44.494;11.356;2022-09-29T08:26:04;22.08;;;10.00;;
56760;SDS011;42633;44.494;11.356;2022-09-29T08:29:18;23.02;;;10.02;;
56760;SDS011;42633;44.494;11.356;2022-09-29T08:32:23;16.25;;;8.25;;
56760;SDS011;42633;44.494;11.356;2022-09-29T08:35:28;20.70;;;9.02;;
56760;SDS011;42633;44.494;11.356;2022-09-29T08:38:32;16.00;;;7.20;;
56760;SDS011;42633;44.494;11.356;2022-09-29T08:42:14;13.43;;;6.40;;
56760;SDS011;42633;44.494;11.356;2022-09-29T08:45:27;14.57;;;5.53;;
56760;SDS011;42633;44.494;11.356;2022-09-29T08:52:49;14.80;;;3.38;;
56760;SDS011;42633;44.494;11.356;2022-09-29T08:56:12;8.90;;;2.25;;
56760;SDS011;42633;44.494;11.356;2022-09-29T08:59:20;8.98;;;1.90;;
56760;SDS011;42633;44.494;11.356;2022-09-29T09:02:36;5.18;;;2.03;;
56760;SDS011;42633;44.494;11.356;2022-09-29T09:05:59;8.57;;;2.90;;
56760;SDS011;42633;44.494;11.356;2022-09-29T09:22:59;7.65;;;1.88;;
56760;SDS011;42633;44.494;11.356;2022-09-29T09:26:10;9.77;;;1.38;;
56760;SDS011;42633;44.494;11.356;2022-09-29T09:29:30;8.85;;;1.85;;
56760;SDS011;42633;44.494;11.356;2022-09-29T09:32:48;4.68;;;1.30;;
56760;SDS011;42633;44.494;11.356;2022-09-29T09:36:06;2.95;;;0.93;;
56760;SDS011;42633;44.494;11.356;2022-09-29T09:42:33;13.20;;;3.38;;
56760;SDS011;42633;44.494;11.356;2022-09-29T09:45:44;8.13;;;1.80;;
56760;SDS011;42633;44.494;11.356;2022-09-29T09:49:18;5.40;;;1.27;;
56760;SDS011;42633;44.494;11.356;2022-09-29T09:52:40;6.95;;;1.88;;
56760;SDS011;42633;44.494;11.356;2022-09-29T09:55:52;9.02;;;1.50;;
56760;SDS011;42633;44.494;11.356;2022-09-29T09:59:12;7.00;;;1.80;;
56760;SDS011;42633;44.494;11.356;2022-09-29T10:02:24;5.78;;;1.75;;
56760;SDS011;42633;44.494;11.356;2022-09-29T10:05:35;8.35;;;1.63;;
56760;SDS011;42633;44.494;11.356;2022-09-29T10:08:53;7.13;;;1.52;;
56760;SDS011;42633;44.494;11.356;2022-09-29T10:11:59;6.80;;;1.67;;
56760;SDS011;42633;44.494;11.356;2022-09-29T10:15:17;5.05;;;1.92;;
56760;SDS011;42633;44.494;11.356;2022-09-29T10:18:38;5.88;;;1.25;;
56760;SDS011;42633;44.494;11.356;2022-09-29T10:25:31;7.50;;;1.70;;
56760;SDS011;42633;44.494;11.356;2022-09-29T10:28:53;5.68;;;1.30;;
56760;SDS011;42633;44.494;11.356;2022-09-29T10:32:21;7.57;;;1.50;;
56760;SDS011;42633;44.494;11.356;2022-09-29T10:35:46;6.57;;;1.75;;
56760;SDS011;42633;44.494;11.356;2022-09-29T10:39:39;4.68;;;1.40;;
56760;SDS011;42633;44.494;11.356;2022-09-29T10:42:55;4.40;;;1.15;;
56760;SDS011;42633;44.494;11.356;2022-09-29T10:46:01;5.18;;;1.58;;
56760;SDS011;42633;44.494;11.356;2022-09-29T10:49:19;5.78;;;1.52;;
56760;SDS011;42633;44.494;11.356;2022-09-29T10:52:27;4.22;;;0.85;;
56760;SDS011;42633;44.494;11.356;2022-09-29T10:55:33;4.07;;;1.10;;
56760;SDS011;42633;44.494;11.356;2022-09-29T10:58:39;8.85;;;3.35;;
56760;SDS011;42633;44.494;11.356;2022-09-29T11:01:50;6.40;;;1.40;;
56760;SDS011;42633;44.494;11.356;2022-09-29T11:15:38;5.53;;;1.90;;
56760;SDS011;42633;44.494;11.356;2022-09-29T11:18:50;5.00;;;1.48;;
56760;SDS011;42633;44.494;11.356;2022-09-29T11:29:24;3.50;;;0.90;;
56760;SDS011;42633;44.494;11.356;2022-09-29T11:33:20;5.70;;;1.17;;
56760;SDS011;42633;44.494;11.356;2022-09-29T11:57:00;4.80;;;1.55;;
56760;SDS011;42633;44.494;11.356;2022-09-29T12:00:13;4.28;;;1.65;;
56760;SDS011;42633;44.494;11.356;2022-09-29T12:03:22;5.38;;;1.30;;
56760;SDS011;42633;44.494;11.356;2022-09-29T12:06:54;7.07;;;1.65;;
56760;SDS011;42633;44.494;11.356;2022-09-29T12:13:38;7.45;;;1.00;;
56760;SDS011;42633;44.494;11.356;2022-09-29T12:16:52;2.30;;;0.77;;
56760;SDS011;42633;44.494;11.356;2022-09-29T12:20:04;4.35;;;1.05;;
56760;SDS011;42633;44.494;11.356;2022-09-29T12:23:19;4.73;;;0.93;;
56760;SDS011;42633;44.494;11.356;2022-09-29T12:26:26;4.68;;;0.80;;
56760;SDS011;42633;44.494;11.356;2022-09-29T12:29:39;5.07;;;1.05;;
56760;SDS011;42633;44.494;11.356;2022-09-29T12:32:52;5.35;;;1.05;;
56760;SDS011;42633;44.494;11.356;2022-09-29T12:50:47;3.65;;;0.90;;
56760;SDS011;42633;44.494;11.356;2022-09-29T12:57:43;3.50;;;1.10;;
56760;SDS011;42633;44.494;11.356;2022-09-29T13:00:54;5.22;;;0.95;;
56760;SDS011;42633;44.494;11.356;2022-09-29T13:27:42;4.22;;;0.93;;
56760;SDS011;42633;44.494;11.356;2022-09-29T13:30:48;2.97;;;0.63;;
56760;SDS011;42633;44.494;11.356;2022-09-29T13:33:54;4.15;;;1.00;;
56760;SDS011;42633;44.494;11.356;2022-09-29T13:40:18;4.45;;;0.70;;
56760;SDS011;42633;44.494;11.356;2022-09-29T13:43:37;4.65;;;0.70;;
56760;SDS011;42633;44.494;11.356;2022-09-29T13:46:43;6.47;;;0.93;;
56760;SDS011;42633;44.494;11.356;2022-09-29T13:49:47;4.38;;;0.93;;
56760;SDS011;42633;44.494;11.356;2022-09-29T13:52:51;9.50;;;1.20;;
56760;SDS011;42633;44.494;11.356;2022-09-29T13:59:11;9.27;;;1.30;;
56760;SDS011;42633;44.494;11.356;2022-09-29T14:02:24;2.53;;;0.70;;
56760;SDS011;42633;44.494;11.356;2022-09-29T14:05:43;4.50;;;1.08;;
56760;SDS011;42633;44.494;11.356;2022-09-29T14:11:55;1.70;;;0.70;;
56760;SDS011;42633;44.494;11.356;2022-09-29T14:15:01;3.63;;;0.80;;
56760;SDS011;42633;44.494;11.356;2022-09-29T14:18:13;2.97;;;1.00;;
56760;SDS011;42633;44.494;11.356;2022-09-29T14:21:57;3.80;;;1.35;;
56760;SDS011;42633;44.494;11.356;2022-09-29T14:28:11;2.90;;;1.00;;
56760;SDS011;42633;44.494;11.356;2022-09-29T14:31:21;2.08;;;0.60;;
56760;SDS011;42633;44.494;11.356;2022-09-29T14:34:27;4.72;;;0.75;;
56760;SDS011;42633;44.494;11.356;2022-09-29T14:37:43;3.17;;;0.90;;
56760;SDS011;42633;44.494;11.356;2022-09-29T14:44:35;4.33;;;0.90;;
56760;SDS011;42633;44.494;11.356;2022-09-29T14:48:09;5.57;;;1.50;;
56760;SDS011;42633;44.494;11.356;2022-09-29T14:51:58;4.68;;;1.42;;
56760;SDS011;42633;44.494;11.356;2022-09-29T15:03:22;4.47;;;1.33;;
56760;SDS011;42633;44.494;11.356;2022-09-29T15:06:47;4.38;;;1.00;;
56760;SDS011;42633;44.494;11.356;2022-09-29T15:13:48;4.97;;;1.48;;
56760;SDS011;42633;44.494;11.356;2022-09-29T15:21:36;8.00;;;2.22;;
56760;SDS011;42633;44.494;11.356;2022-09-29T15:28:22;3.92;;;1.33;;
56760;SDS011;42633;44.494;11.356;2022-09-29T15:31:49;7.63;;;1.60;;
56760;SDS011;42633;44.494;11.356;2022-09-29T15:35:06;5.03;;;1.27;;
56760;SDS011;42633;44.494;11.356;2022-09-29T15:38:34;4.82;;;1.20;;
56760;SDS011;42633;44.494;11.356;2022-09-29T15:42:19;5.40;;;1.65;;
56760;SDS011;42633;44.494;11.356;2022-09-29T15:45:35;4.53;;;1.40;;
56760;SDS011;42633;44.494;11.356;2022-09-29T15:49:06;6.53;;;1.17;;
56760;SDS011;42633;44.494;11.356;2022-09-29T15:52:36;6.53;;;2.08;;
56760;SDS011;42633;44.494;11.356;2022-09-29T15:55:58;3.67;;;0.93;;
56760;SDS011;42633;44.494;11.356;2022-09-29T16:03:11;5.93;;;1.17;;
56760;SDS011;42633;44.494;11.356;2022-09-29T16:09:43;5.07;;;1.30;;
56760;SDS011;42633;44.494;11.356;2022-09-29T16:16:08;3.63;;;1.33;;
56760;SDS011;42633;44.494;11.356;2022-09-29T16:19:19;6.55;;;2.25;;
56760;SDS011;42633;44.494;11.356;2022-09-29T16:25:42;4.38;;;0.85;;
56760;SDS011;42633;44.494;11.356;2022-09-29T16:32:34;5.03;;;1.35;;
56760;SDS011;42633;44.494;11.356;2022-09-29T16:35:42;5.15;;;0.90;;
56760;SDS011;42633;44.494;11.356;2022-09-29T16:39:09;5.03;;;1.20;;
56760;SDS011;42633;44.494;11.356;2022-09-29T16:42:20;5.35;;;1.67;;
56760;SDS011;42633;44.494;11.356;2022-09-29T16:45:28;3.92;;;1.10;;
56760;SDS011;42633;44.494;11.356;2022-09-29T16:48:38;4.65;;;1.33;;
56760;SDS011;42633;44.494;11.356;2022-09-29T16:51:48;3.97;;;1.20;;
56760;SDS011;42633;44.494;11.356;2022-09-29T16:59:00;4.22;;;2.05;;
56760;SDS011;42633;44.494;11.356;2022-09-29T17:02:28;3.55;;;1.00;;
56760;SDS011;42633;44.494;11.356;2022-09-29T17:05:39;7.22;;;1.10;;
56760;SDS011;42633;44.494;11.356;2022-09-29T17:09:01;4.80;;;1.30;;
56760;SDS011;42633;44.494;11.356;2022-09-29T17:12:10;6.78;;;1.42;;
56760;SDS011;42633;44.494;11.356;2022-09-29T17:15:18;3.97;;;1.35;;
56760;SDS011;42633;44.494;11.356;2022-09-29T17:18:29;3.92;;;1.25;;
56760;SDS011;42633;44.494;11.356;2022-09-29T17:21:34;4.65;;;1.27;;
56760;SDS011;42633;44.494;11.356;2022-09-29T17:24:39;5.60;;;2.67;;
56760;SDS011;42633;44.494;11.356;2022-09-29T17:27:47;6.38;;;1.20;;
56760;SDS011;42633;44.494;11.356;2022-09-29T17:31:10;3.55;;;2.03;;
56760;SDS011;42633;44.494;11.356;2022-09-29T17:34:22;5.55;;;1.80;;
56760;SDS011;42633;44.494;11.356;2022-09-29T17:37:31;5.47;;;1.77;;
56760;SDS011;42633;44.494;11.356;2022-09-29T17:43:49;8.00;;;2.63;;
56760;SDS011;42633;44.494;11.356;2022-09-29T17:46:53;4.82;;;1.20;;
56760;SDS011;42633;44.494;11.356;2022-09-29T17:49:59;2.47;;;0.90;;
56760;SDS011;42633;44.494;11.356;2022-09-29T17:53:21;5.28;;;1.70;;
56760;SDS011;42633;44.494;11.356;2022-09-29T17:56:26;3.53;;;1.48;;
56760;SDS011;42633;44.494;11.356;2022-09-29T17:59:35;5.38;;;1.17;;
56760;SDS011;42633;44.494;11.356;2022-09-29T18:02:45;9.52;;;2.15;;
56760;SDS011;42633;44.494;11.356;2022-09-29T18:10:39;9.07;;;2.05;;
56760;SDS011;42633;44.494;11.356;2022-09-29T18:13:51;8.93;;;1.73;;
56760;SDS011;42633;44.494;11.356;2022-09-29T18:17:09;6.35;;;2.15;;
56760;SDS011;42633;44.494;11.356;2022-09-29T18:20:27;4.43;;;1.75;;
56760;SDS011;42633;44.494;11.356;2022-09-29T18:23:34;5.53;;;1.27;;
56760;SDS011;42633;44.494;11.356;2022-09-29T18:26:39;7.50;;;1.40;;
56760;SDS011;42633;44.494;11.356;2022-09-29T18:29:47;2.97;;;1.30;;
56760;SDS011;42633;44.494;11.356;2022-09-29T18:32:54;6.28;;;1.95;;
56760;SDS011;42633;44.494;11.356;2022-09-29T18:36:05;4.07;;;1.67;;
56760;SDS011;42633;44.494;11.356;2022-09-29T18:42:18;8.70;;;4.00;;
56760;SDS011;42633;44.494;11.356;2022-09-29T18:45:29;5.88;;;2.97;;
56760;SDS011;42633;44.494;11.356;2022-09-29T18:48:52;6.10;;;2.10;;
56760;SDS011;42633;44.494;11.356;2022-09-29T18:52:08;8.80;;;3.78;;
56760;SDS011;42633;44.494;11.356;2022-09-29T18:55:32;4.90;;;1.50;;
56760;SDS011;42633;44.494;11.356;2022-09-29T18:58:42;5.75;;;2.47;;
56760;SDS011;42633;44.494;11.356;2022-09-29T19:01:48;3.97;;;1.27;;
56760;SDS011;42633;44.494;11.356;2022-09-29T19:04:53;3.78;;;0.93;;
56760;SDS011;42633;44.494;11.356;2022-09-29T19:08:03;5.47;;;1.55;;
56760;SDS011;42633;44.494;11.356;2022-09-29T19:11:15;4.20;;;1.27;;
56760;SDS011;42633;44.494;11.356;2022-09-29T19:14:27;4.53;;;1.48;;
56760;SDS011;42633;44.494;11.356;2022-09-29T19:17:36;6.57;;;1.40;;
56760;SDS011;42633;44.494;11.356;2022-09-29T19:23:58;4.82;;;1.58;;
56760;SDS011;42633;44.494;11.356;2022-09-29T19:27:02;3.30;;;1.58;;
56760;SDS011;42633;44.494;11.356;2022-09-29T19:30:07;5.07;;;1.75;;
56760;SDS011;42633;44.494;11.356;2022-09-29T19:33:14;9.13;;;1.80;;
56760;SDS011;42633;44.494;11.356;2022-09-29T19:36:20;5.90;;;2.00;;
56760;SDS011;42633;44.494;11.356;2022-09-29T19:39:26;6.85;;;2.22;;
56760;SDS011;42633;44.494;11.356;2022-09-29T19:45:38;6.63;;;2.25;;
56760;SDS011;42633;44.494;11.356;2022-09-29T19:48:43;9.98;;;2.95;;
56760;SDS011;42633;44.494;11.356;2022-09-29T19:51:47;9.02;;;2.53;;
56760;SDS011;42633;44.494;11.356;2022-09-29T19:55:00;6.25;;;2.35;;
56760;SDS011;42633;44.494;11.356;2022-09-29T19:58:08;14.43;;;9.25;;
56760;SDS011;42633;44.494;11.356;2022-09-29T20:01:12;17.02;;;10.13;;
56760;SDS011;42633;44.494;11.356;2022-09-29T20:04:17;14.60;;;8.60;;
56760;SDS011;42633;44.494;11.356;2022-09-29T20:07:22;7.30;;;4.32;;
56760;SDS011;42633;44.494;11.356;2022-09-29T20:10:26;3.78;;;2.15;;
56760;SDS011;42633;44.494;11.356;2022-09-29T20:13:31;7.70;;;3.63;;
56760;SDS011;42633;44.494;11.356;2022-09-29T20:16:36;7.03;;;2.00;;
56760;SDS011;42633;44.494;11.356;2022-09-29T20:19:43;5.50;;;1.90;;
56760;SDS011;42633;44.494;11.356;2022-09-29T20:22:49;5.22;;;1.80;;
56760;SDS011;42633;44.494;11.356;2022-09-29T20:25:59;4.93;;;1.75;;
56760;SDS011;42633;44.494;11.356;2022-09-29T20:29:04;8.85;;;2.10;;
56760;SDS011;42633;44.494;11.356;2022-09-29T20:32:09;6.95;;;2.10;;
56760;SDS011;42633;44.494;11.356;2022-09-29T20:35:13;6.25;;;1.52;;
56760;SDS011;42633;44.494;11.356;2022-09-29T20:38:17;6.82;;;4.15;;
56760;SDS011;42633;44.494;11.356;2022-09-29T20:41:22;5.30;;;2.45;;
56760;SDS011;42633;44.494;11.356;2022-09-29T20:44:26;5.53;;;1.40;;
56760;SDS011;42633;44.494;11.356;2022-09-29T20:47:30;4.55;;;1.73;;
56760;SDS011;42633;44.494;11.356;2022-09-29T20:50:35;19.80;;;11.60;;
56760;SDS011;42633;44.494;11.356;2022-09-29T20:53:40;10.07;;;6.43;;
56760;SDS011;42633;44.494;11.356;2022-09-29T20:56:45;5.63;;;3.08;;
56760;SDS011;42633;44.494;11.356;2022-09-29T20:59:50;6.53;;;2.55;;
56760;SDS011;42633;44.494;11.356;2022-09-29T21:02:54;10.05;;;4.32;;
56760;SDS011;42633;44.494;11.356;2022-09-29T21:05:58;8.18;;;4.97;;
56760;SDS011;42633;44.494;11.356;2022-09-29T21:09:03;9.50;;;4.30;;
56760;SDS011;42633;44.494;11.356;2022-09-29T21:12:07;5.65;;;2.78;;
56760;SDS011;42633;44.494;11.356;2022-09-29T21:15:11;7.28;;;2.50;;
56760;SDS011;42633;44.494;11.356;2022-09-29T21:18:15;4.88;;;2.25;;
56760;SDS011;42633;44.494;11.356;2022-09-29T21:21:43;6.82;;;1.95;;
56760;SDS011;42633;44.494;11.356;2022-09-29T21:25:16;4.88;;;1.80;;
56760;SDS011;42633;44.494;11.356;2022-09-29T21:28:23;4.88;;;2.10;;
56760;SDS011;42633;44.494;11.356;2022-09-29T21:31:30;5.65;;;2.55;;
56760;SDS011;42633;44.494;11.356;2022-09-29T21:34:35;6.03;;;2.65;;
56760;SDS011;42633;44.494;11.356;2022-09-29T21:38:00;7.57;;;2.00;;
56760;SDS011;42633;44.494;11.356;2022-09-29T21:41:13;8.90;;;2.05;;
56760;SDS011;42633;44.494;11.356;2022-09-29T21:44:32;6.03;;;1.73;;
56760;SDS011;42633;44.494;11.356;2022-09-29T21:47:45;5.72;;;1.42;;
56760;SDS011;42633;44.494;11.356;2022-09-29T21:51:08;6.85;;;1.50;;
56760;SDS011;42633;44.494;11.356;2022-09-29T21:58:04;7.10;;;1.63;;
56760;SDS011;42633;44.494;11.356;2022-09-29T22:01:32;6.00;;;1.17;;
56760;SDS011;42633;44.494;11.356;2022-09-29T22:04:39;3.78;;;0.93;;
56760;SDS011;42633;44.494;11.356;2022-09-29T22:07:49;8.75;;;1.30;;
56760;SDS011;42633;44.494;11.356;2022-09-29T22:11:18;6.57;;;1.13;;
56760;SDS011;42633;44.494;11.356;2022-09-29T22:14:26;5.68;;;1.38;;
56760;SDS011;42633;44.494;11.356;2022-09-29T22:17:41;7.50;;;1.27;;
56760;SDS011;42633;44.494;11.356;2022-09-29T22:21:01;6.10;;;1.42;;
56760;SDS011;42633;44.494;11.356;2022-09-29T22:24:29;3.92;;;1.02;;
56760;SDS011;42633;44.494;11.356;2022-09-29T22:27:40;5.63;;;1.10;;